createdAt,value
2019-01-05T00:02:57.331Z,1.87
2019-01-05T00:06:30.659Z,1.69
2019-01-05T00:09:59.956Z,1.96
2019-01-05T00:13:27.300Z,1.87
2019-01-05T00:16:51.222Z,1.29
2019-01-05T00:20:15.288Z,1.55
2019-01-05T00:23:39.940Z,1.37
2019-01-05T00:27:04.516Z,1.44
2019-01-05T00:30:44.421Z,1.21
2019-01-05T00:34:12.768Z,1.32
2019-01-05T00:37:46.258Z,1.28
2019-01-05T00:41:08.656Z,1.26
2019-01-05T00:44:32.548Z,1.41
2019-01-05T00:48:16.680Z,1.59
2019-01-05T00:51:45.935Z,1.46
2019-01-05T00:55:13.765Z,1.59
2019-01-05T00:58:48.536Z,1.44
2019-01-05T01:02:28.796Z,1.35
2019-01-05T01:05:52.184Z,1.35
2019-01-05T01:09:28.976Z,1.62
2019-01-05T01:13:08.654Z,1.93
2019-01-05T01:16:32.029Z,1.98
2019-01-05T01:19:53.398Z,1.79
2019-01-05T01:23:33.176Z,1.79
2019-01-05T01:27:07.345Z,2.03
2019-01-05T01:30:30.624Z,2.04
2019-01-05T01:33:58.092Z,2.00
2019-01-05T01:37:32.083Z,1.85
2019-01-05T01:41:03.086Z,1.74
2019-01-05T01:44:43.094Z,1.83
2019-01-05T01:48:21.515Z,1.84
2019-01-05T01:51:51.895Z,1.77
2019-01-05T01:55:18.049Z,1.79
2019-01-05T01:58:48.564Z,1.73
2019-01-05T02:02:26.791Z,1.98
2019-01-05T02:05:57.442Z,2.01
2019-01-05T02:09:21.821Z,2.17
2019-01-05T02:12:56.077Z,2.27
2019-01-05T02:16:36.727Z,2.12
2019-01-05T02:20:18.002Z,2.00
2019-01-05T02:24:26.442Z,2.33
2019-01-05T02:28:30.762Z,2.04
2019-01-05T02:32:28.424Z,1.86
2019-01-05T02:36:27.087Z,2.01
2019-01-05T02:40:23.124Z,1.72
2019-01-05T02:44:33.631Z,2.30
2019-01-05T02:48:53.341Z,2.23
2019-01-05T02:52:52.837Z,2.18
2019-01-05T02:57:26.244Z,2.15
2019-01-05T03:01:30.917Z,2.31
2019-01-05T03:05:54.920Z,2.21
2019-01-05T03:10:24.160Z,2.03
2019-01-05T03:14:49.236Z,1.78
2019-01-05T03:19:20.469Z,1.63
2019-01-05T03:23:13.868Z,1.40
2019-01-05T03:27:19.238Z,1.44
2019-01-05T03:31:25.987Z,1.68
2019-01-05T03:35:20.537Z,1.63
2019-01-05T03:39:19.257Z,1.68
2019-01-05T03:43:41.734Z,1.51
2019-01-05T03:47:43.667Z,1.39
2019-01-05T03:51:49.420Z,1.75
2019-01-05T03:56:12.481Z,1.71
2019-01-05T04:00:28.736Z,1.86
2019-01-05T04:04:40.689Z,1.64
2019-01-05T04:08:52.541Z,1.42
2019-01-05T04:13:01.140Z,1.48
2019-01-05T04:17:05.087Z,1.63
2019-01-05T04:20:52.654Z,1.48
2019-01-05T04:25:02.676Z,1.37
2019-01-05T04:29:05.202Z,1.77
2019-01-05T04:33:15.828Z,1.86
2019-01-05T04:37:19.717Z,1.94
2019-01-05T04:41:23.566Z,1.63
2019-01-05T04:45:22.468Z,1.53
2019-01-05T04:49:27.057Z,1.64
2019-01-05T04:53:42.768Z,1.88
2019-01-05T04:57:59.722Z,1.67
2019-01-05T05:02:25.033Z,1.62
2019-01-05T05:06:37.251Z,1.86
2019-01-05T05:10:53.168Z,1.93
2019-01-05T05:14:59.871Z,2.04
2019-01-05T05:19:08.801Z,2.14
2019-01-05T05:23:21.513Z,1.68
2019-01-05T05:27:15.156Z,2.18
2019-01-05T05:31:38.784Z,2.39
2019-01-05T05:35:58.054Z,2.46
2019-01-05T05:40:21.032Z,2.49
2019-01-05T05:44:47.634Z,2.42
2019-01-05T05:48:36.411Z,2.56
2019-01-05T05:52:34.290Z,2.51
2019-01-05T05:56:56.442Z,2.47
2019-01-05T06:01:16.113Z,2.72
2019-01-05T06:05:26.289Z,2.73
2019-01-05T06:09:28.835Z,2.79
2019-01-05T06:13:31.695Z,2.72
2019-01-05T06:17:42.345Z,2.85
2019-01-05T06:21:43.849Z,2.81
2019-01-05T06:26:05.351Z,2.87
2019-01-05T06:30:27.176Z,3.07
2019-01-05T06:34:27.613Z,2.99
2019-01-05T06:38:32.033Z,3.00
2019-01-05T06:42:37.602Z,3.00
2019-01-05T06:46:38.628Z,2.96
2019-01-05T06:50:40.263Z,2.81
2019-01-05T06:54:43.343Z,2.76
2019-01-05T06:58:50.075Z,2.40
2019-01-05T07:02:54.704Z,2.39
2019-01-05T07:07:24.721Z,1.49
2019-01-05T07:11:56.127Z,2.27
2019-01-05T07:16:05.012Z,2.55
2019-01-05T07:20:04.899Z,2.81
2019-01-05T07:24:22.778Z,2.98
2019-01-05T07:28:21.681Z,2.96
2019-01-05T07:32:25.434Z,2.76
2019-01-05T07:36:49.900Z,2.89
2019-01-05T07:41:09.792Z,3.10
2019-01-05T07:45:05.863Z,3.39
2019-01-05T07:49:04.695Z,3.35
2019-01-05T07:53:24.393Z,3.52
2019-01-05T07:57:33.794Z,3.37
2019-01-05T08:01:58.900Z,3.35
2019-01-05T08:06:07.344Z,3.61
2019-01-05T08:10:06.176Z,2.76
2019-01-05T08:14:52.622Z,3.32
2019-01-05T08:19:21.384Z,3.48
2019-01-05T08:23:35.375Z,3.47
2019-01-05T08:27:25.280Z,3.34
2019-01-05T08:31:30.720Z,3.13
2019-01-05T08:35:28.740Z,2.82
2019-01-05T08:39:57.778Z,2.89
2019-01-05T08:44:00.279Z,2.70
2019-01-05T08:48:03.657Z,2.77
2019-01-05T08:52:09.130Z,3.09
2019-01-05T08:56:32.471Z,2.91
2019-01-05T09:01:04.892Z,3.24
2019-01-05T09:05:49.059Z,3.53
2019-01-05T09:09:48.392Z,3.73
2019-01-05T09:14:08.450Z,3.60
2019-01-05T09:18:11.534Z,3.75
2019-01-05T09:22:29.859Z,3.59
2019-01-05T09:26:59.137Z,3.86
2019-01-05T09:31:07.941Z,3.85
2019-01-05T09:35:16.845Z,3.97
2019-01-05T09:39:35.393Z,3.87
2019-01-05T09:43:34.708Z,4.18
2019-01-05T09:47:32.450Z,4.11
2019-01-05T09:51:31.507Z,4.13
2019-01-05T09:55:46.977Z,4.30
2019-01-05T09:59:51.259Z,4.23
2019-01-05T10:03:54.149Z,4.25
2019-01-05T10:07:59.831Z,4.26
2019-01-05T10:11:57.168Z,4.35
2019-01-05T10:16:10.588Z,4.07
2019-01-05T10:20:03.887Z,4.20
2019-01-05T10:24:33.263Z,4.30
2019-01-05T10:28:46.038Z,4.29
2019-01-05T10:32:57.823Z,4.03
2019-01-05T10:37:09.005Z,4.38
2019-01-05T10:41:18.801Z,4.57
2019-01-05T10:45:28.609Z,4.58
2019-01-05T10:49:39.366Z,4.67
2019-01-05T10:53:27.111Z,4.61
2019-01-05T10:58:02.835Z,4.73
2019-01-05T11:02:11.679Z,4.50
2019-01-05T11:06:12.304Z,4.95
2019-01-05T11:10:19.110Z,5.38
2019-01-05T11:14:30.770Z,5.47
2019-01-05T11:18:42.383Z,5.23
2019-01-05T11:22:42.222Z,5.60
2019-01-05T11:27:08.178Z,5.72
2019-01-05T11:31:25.718Z,5.98
2019-01-05T11:35:57.209Z,5.86
2019-01-05T11:40:02.913Z,5.32
2019-01-05T11:44:20.097Z,5.35
2019-01-05T11:48:34.231Z,4.66
2019-01-05T11:52:34.102Z,4.82
2019-01-05T11:56:54.528Z,4.14
2019-01-05T12:01:10.409Z,4.00
2019-01-05T12:05:16.465Z,4.14
2019-01-05T12:09:20.216Z,4.37
2019-01-05T12:13:15.967Z,4.26
2019-01-05T12:17:17.602Z,4.08
2019-01-05T12:21:20.330Z,4.50
2019-01-05T12:25:42.358Z,4.47
2019-01-05T12:30:02.015Z,4.46
2019-01-05T12:34:37.834Z,3.96
2019-01-05T12:39:16.039Z,4.09
2019-01-05T12:43:22.823Z,4.22
2019-01-05T12:48:00.950Z,4.20
2019-01-05T12:52:05.301Z,4.26
2019-01-05T12:56:22.736Z,4.24
2019-01-05T13:00:22.231Z,4.08
2019-01-05T13:04:34.089Z,4.12
2019-01-05T13:09:12.518Z,3.99
2019-01-05T13:13:28.221Z,4.10
2019-01-05T13:17:48.606Z,4.16
2019-01-05T13:21:35.602Z,3.92
2019-01-05T13:25:45.249Z,4.02
2019-01-05T13:29:35.753Z,3.96
2019-01-05T13:33:51.067Z,4.23
2019-01-05T13:37:50.360Z,4.36
2019-01-05T13:41:54.306Z,4.32
2019-01-05T13:46:23.648Z,4.33
2019-01-05T13:50:33.017Z,4.31
2019-01-05T13:54:14.125Z,4.05
2019-01-05T13:57:41.677Z,4.23
2019-01-05T14:01:06.195Z,4.21
2019-01-05T14:04:30.677Z,4.38
2019-01-05T14:08:13.624Z,3.99
2019-01-05T14:11:46.969Z,4.18
2019-01-05T14:15:11.420Z,4.31
2019-01-05T14:18:44.865Z,4.35
2019-01-05T14:22:08.080Z,4.28
2019-01-05T14:25:41.303Z,4.24
2019-01-05T14:29:12.075Z,4.38
2019-01-05T14:32:35.604Z,3.73
2019-01-05T14:36:15.684Z,4.01
2019-01-05T14:39:52.338Z,3.85
2019-01-05T14:43:15.599Z,3.75
2019-01-05T14:46:43.381Z,3.64
2019-01-05T14:50:26.166Z,3.67
2019-01-05T14:53:49.196Z,3.46
2019-01-05T14:57:12.345Z,3.75
2019-01-05T15:00:33.909Z,3.66
2019-01-05T15:04:10.742Z,3.49
2019-01-05T15:07:33.876Z,3.65
2019-01-05T15:11:04.519Z,3.92
2019-01-05T15:14:38.044Z,4.06
2019-01-05T15:18:05.335Z,4.13
2019-01-05T15:21:35.676Z,4.27
2019-01-05T15:25:06.278Z,3.84
2019-01-05T15:28:29.589Z,4.06
2019-01-05T15:32:00.102Z,3.78
2019-01-05T15:35:23.596Z,3.79
2019-01-05T15:38:54.282Z,4.04
2019-01-05T15:42:27.808Z,4.11
2019-01-05T15:45:55.355Z,3.94
2019-01-05T15:49:19.837Z,3.92
2019-01-05T15:52:43.173Z,3.97
2019-01-05T15:56:10.676Z,4.04
2019-01-05T15:59:34.074Z,4.13
2019-01-05T16:02:57.648Z,3.80
2019-01-05T16:06:37.543Z,3.86
2019-01-05T16:10:17.067Z,3.87
2019-01-05T16:13:40.190Z,3.50
2019-01-05T16:17:08.023Z,3.77
2019-01-05T16:20:31.441Z,3.55
2019-01-05T16:24:02.368Z,3.39
2019-01-05T16:27:25.712Z,3.42
2019-01-05T16:30:50.207Z,3.14
2019-01-05T16:34:20.834Z,3.51
2019-01-05T16:38:00.458Z,3.71
2019-01-05T16:41:23.520Z,3.88
2019-01-05T16:44:54.240Z,3.77
2019-01-05T16:48:27.730Z,3.23
2019-01-05T16:51:55.060Z,3.38
2019-01-05T16:55:19.544Z,3.54
2019-01-05T16:58:43.064Z,3.29
2019-01-05T17:02:22.604Z,3.19
2019-01-05T17:05:58.982Z,2.91
2019-01-05T17:09:34.418Z,3.24
2019-01-05T17:13:01.738Z,3.43
2019-01-05T17:16:32.163Z,3.15
2019-01-05T17:19:49.427Z,3.44
2019-01-05T17:23:16.752Z,3.50
2019-01-05T17:26:41.350Z,3.45
2019-01-05T17:30:01.079Z,3.29
2019-01-05T17:33:26.211Z,3.23
2019-01-05T17:36:49.611Z,3.08
2019-01-05T17:40:29.324Z,3.38
2019-01-05T17:43:53.859Z,3.67
2019-01-05T17:47:24.489Z,3.34
2019-01-05T17:51:01.142Z,3.38
2019-01-05T17:54:24.524Z,3.14
2019-01-05T17:57:47.951Z,3.11
2019-01-05T18:01:11.540Z,3.31
2019-01-05T18:04:38.955Z,3.30
2019-01-05T18:08:02.118Z,3.25
2019-01-05T18:11:25.323Z,3.16
2019-01-05T18:15:02.092Z,3.21
2019-01-05T18:18:42.236Z,2.70
2019-01-05T18:22:03.538Z,2.55
2019-01-05T18:25:39.934Z,3.00
2019-01-05T18:29:03.472Z,3.23
2019-01-05T18:32:28.004Z,3.20
2019-01-05T18:35:58.552Z,3.32
2019-01-05T18:39:23.140Z,3.30
2019-01-05T18:42:53.550Z,3.18
2019-01-05T18:46:18.297Z,3.16
2019-01-05T18:49:41.535Z,3.23
2019-01-05T18:53:03.332Z,3.00
2019-01-05T18:56:43.237Z,2.86
2019-01-05T19:00:18.018Z,2.69
2019-01-05T19:03:49.990Z,2.58
2019-01-05T19:07:17.550Z,2.86
2019-01-05T19:10:48.157Z,2.50
2019-01-05T19:14:11.569Z,2.56
2019-01-05T19:17:34.909Z,2.27
2019-01-05T19:21:08.518Z,2.06
2019-01-05T19:24:31.765Z,2.22
2019-01-05T19:27:56.227Z,1.89
2019-01-05T19:31:26.622Z,2.14
2019-01-05T19:34:51.089Z,2.13
2019-01-05T19:38:24.906Z,2.05
2019-01-05T19:41:45.970Z,1.64
2019-01-05T19:45:09.382Z,1.72
2019-01-05T19:48:32.501Z,1.84
2019-01-05T19:51:55.664Z,1.79
2019-01-05T19:55:19.014Z,1.50
2019-01-05T19:58:42.360Z,1.77
2019-01-05T20:02:05.487Z,1.58
2019-01-05T20:05:29.982Z,1.24
2019-01-05T20:09:12.675Z,1.13
2019-01-05T20:12:37.186Z,1.05
2019-01-05T20:16:07.622Z,0.92
2019-01-05T20:19:30.786Z,0.93
2019-01-05T20:22:53.918Z,1.13
2019-01-05T20:26:18.505Z,0.26
2019-01-05T20:29:41.845Z,0.86
2019-01-05T20:33:12.181Z,0.83
2019-01-05T20:36:36.800Z,1.23
2019-01-05T20:39:53.857Z,1.07
2019-01-05T20:43:24.504Z,0.97
2019-01-05T20:46:46.094Z,0.77
2019-01-05T20:50:09.525Z,0.79
2019-01-05T20:53:46.147Z,0.51
2019-01-05T20:57:16.631Z,0.74
2019-01-05T21:00:43.885Z,0.45
2019-01-05T21:04:14.614Z,0.65
2019-01-05T21:07:38.229Z,0.52
2019-01-05T21:11:08.859Z,0.39
2019-01-05T21:14:31.950Z,0.42
2019-01-05T21:18:11.685Z,0.40
2019-01-05T21:21:35.941Z,0.12
2019-01-05T21:24:59.130Z,0.50
2019-01-05T21:29:03.584Z,0.49
2019-01-05T21:32:50.647Z,0.36
2019-01-05T21:36:29.164Z,0.42
2019-01-05T21:40:12.551Z,0.21
2019-01-05T21:43:41.623Z,-0.05
2019-01-05T21:47:04.718Z,0.14
2019-01-05T21:50:28.152Z,0.32
2019-01-05T21:54:04.790Z,0.26
2019-01-05T21:57:26.953Z,-0.44
2019-01-05T22:01:06.933Z,-0.28
2019-01-05T22:04:40.620Z,-0.51
2019-01-05T22:08:04.115Z,-0.03
2019-01-05T22:11:34.506Z,-0.05
2019-01-05T22:15:15.751Z,-0.04
2019-01-05T22:18:36.387Z,0.49
2019-01-05T22:22:12.936Z,0.28
2019-01-05T22:25:36.294Z,0.12
2019-01-05T22:28:59.402Z,0.12
2019-01-05T22:32:26.653Z,-0.13
2019-01-05T22:35:45.176Z,0.14
2019-01-05T22:39:08.642Z,-0.11
2019-01-05T22:42:33.166Z,-0.22
2019-01-05T22:45:56.315Z,0.04
2019-01-05T22:49:23.548Z,0.02
2019-01-05T22:52:46.865Z,-0.16
2019-01-05T22:56:29.726Z,-0.08
2019-01-05T22:59:53.099Z,0.26
2019-01-05T23:03:14.460Z,0.30
2019-01-05T23:06:41.952Z,0.21
2019-01-05T23:10:12.247Z,0.22
2019-01-05T23:13:34.192Z,0.11
2019-01-05T23:16:57.259Z,0.21
2019-01-05T23:20:31.237Z,0.47
2019-01-05T23:23:55.737Z,0.26
2019-01-05T23:27:19.081Z,-0.17
2019-01-05T23:30:49.674Z,0.19
2019-01-05T23:34:14.161Z,0.06
2019-01-05T23:37:38.603Z,0.08
2019-01-05T23:41:18.082Z,0.29
2019-01-05T23:44:45.362Z,0.17
2019-01-05T23:48:05.195Z,0.14
2019-01-05T23:51:42.455Z,0.05
2019-01-05T23:55:16.897Z,0.23
2019-01-05T23:58:42.135Z,0.00
